Terminal Aerodrome Forecast
Issued by NWS

Home | Current Version | Previous Version | Graphics & Text | Print | Product List | Glossary On
Versions: 1 2 3 4 5 6 7 8 9 10 11 12 13 14 15 16 17 18
438
FTUS43 KICT 210522
TAFCNU
TAF
KCNU 210522Z 2106/2206 18016G24KT P6SM BKN090
     FM211500 18018G24KT P6SM BKN015
     FM212300 19016G24KT 6SM SHRA VCTS OVC030CB
     FM220200 29010KT 3SM SHRA VCTS OVC025CB
     FM220500 34010KT 6SM SHRA VCTS OVC030CB=

USA.gov is the U.S. government's official web portal to all federal, state and local government web resources and services.